createdAt,value
2019-01-10T00:05:23.620Z,0.23
2019-01-10T00:12:10.184Z,-0.02
2019-01-10T00:15:55.572Z,0.21
2019-01-10T00:21:49.307Z,0.22
2019-01-10T00:25:33.625Z,0.07
2019-01-10T00:28:23.208Z,0.21
2019-01-10T00:34:43.107Z,0.22
2019-01-10T00:45:15.697Z,0.24
2019-01-10T00:48:03.961Z,0.24
2019-01-10T00:51:28.703Z,0.27
2019-01-10T00:54:35.916Z,0.27
2019-01-10T00:57:43.601Z,0.27
2019-01-10T01:00:51.133Z,0.06
2019-01-10T01:03:58.619Z,0.26
2019-01-10T01:09:41.197Z,0.32
2019-01-10T01:15:20.646Z,0.29
2019-01-10T01:18:04.439Z,0.30
2019-01-10T01:20:54.012Z,0.29
2019-01-10T01:23:43.595Z,0.25
2019-01-10T01:31:17.529Z,0.28
2019-01-10T01:34:07.092Z,0.30
2019-01-10T01:37:51.583Z,0.31
2019-01-10T01:40:59.494Z,0.29
2019-01-10T01:47:49.500Z,0.10
2019-01-10T01:50:39.097Z,0.11
2019-01-10T01:54:24.428Z,0.19
2019-01-10T01:57:50.846Z,0.31
2019-01-10T02:00:58.592Z,0.26
2019-01-10T02:03:48.185Z,0.29
2019-01-10T02:14:28.557Z,0.19
2019-01-10T02:20:26.467Z,-0.07
2019-01-10T02:23:52.801Z,0.15
2019-01-10T02:26:59.490Z,-0.01
2019-01-10T02:33:50.463Z,0.16
2019-01-10T02:36:40.059Z,-0.09
2019-01-10T02:39:29.616Z,0.18
2019-01-10T02:42:19.497Z,0.20
2019-01-10T02:45:30.208Z,0.16
2019-01-10T02:48:20.056Z,0.15
2019-01-10T02:55:08.795Z,0.17
2019-01-10T03:09:54.536Z,0.16
2019-01-10T03:12:44.118Z,0.18
2019-01-10T03:15:33.787Z,-0.05
2019-01-10T03:18:17.295Z,-0.13
2019-01-10T03:21:07.156Z,0.10
2019-01-10T03:24:14.561Z,0.07
2019-01-10T03:27:04.117Z,0.06
2019-01-10T03:29:53.727Z,0.11
2019-01-10T03:32:43.629Z,0.13
2019-01-10T03:35:34.534Z,0.03
2019-01-10T03:38:24.098Z,0.14
2019-01-10T03:41:48.891Z,0.06
2019-01-10T03:44:39.117Z,-0.13
2019-01-10T03:59:04.059Z,0.18
2019-01-10T04:01:52.945Z,0.22
2019-01-10T04:09:05.034Z,0.02
2019-01-10T04:11:54.632Z,-0.05
2019-01-10T04:21:38.993Z,0.20
2019-01-10T04:24:28.562Z,0.23
2019-01-10T04:28:11.242Z,0.19
2019-01-10T04:31:18.923Z,0.21
2019-01-10T04:35:01.633Z,0.22
2019-01-10T04:38:45.405Z,-0.03
2019-01-10T04:41:35.007Z,0.02
2019-01-10T04:44:42.161Z,0.26
2019-01-10T04:51:18.214Z,0.14
2019-01-10T04:54:42.991Z,0.26
2019-01-10T04:58:09.184Z,0.28
2019-01-10T05:00:58.757Z,0.28
2019-01-10T05:07:36.412Z,0.02
2019-01-10T05:10:26.351Z,0.27
2019-01-10T05:13:14.202Z,0.30
2019-01-10T05:16:09.867Z,0.06
2019-01-10T05:19:17.252Z,0.07
2019-01-10T05:25:53.673Z,0.36
2019-01-10T05:29:00.892Z,0.33
2019-01-10T05:32:44.949Z,0.09
2019-01-10T05:35:34.547Z,0.35
2019-01-10T05:38:24.432Z,0.32
2019-01-10T05:41:14.645Z,0.37
2019-01-10T05:47:19.936Z,0.38
2019-01-10T05:50:27.432Z,0.39
2019-01-10T05:53:17.292Z,0.17
2019-01-10T05:56:15.360Z,0.21
2019-01-10T05:59:34.127Z,0.40
2019-01-10T06:02:23.988Z,0.43
2019-01-10T06:05:13.844Z,0.39
2019-01-10T06:08:03.545Z,0.39
2019-01-10T06:15:14.753Z,0.38
2019-01-10T06:17:57.072Z,0.25
2019-01-10T06:20:46.677Z,0.34
2019-01-10T06:24:12.811Z,0.33
2019-01-10T06:27:39.540Z,0.31
2019-01-10T06:30:46.860Z,0.33
2019-01-10T06:34:11.701Z,0.16
2019-01-10T06:37:01.873Z,0.28
2019-01-10T06:39:49.563Z,0.31
2019-01-10T06:42:56.679Z,0.27
2019-01-10T06:50:26.452Z,0.27
2019-01-10T06:54:11.700Z,0.25
2019-01-10T06:57:01.295Z,0.23
2019-01-10T06:59:50.867Z,-0.03
2019-01-10T07:03:35.827Z,0.24
2019-01-10T07:07:19.836Z,0.19
2019-01-10T07:13:49.209Z,0.18
2019-01-10T07:16:31.542Z,0.16
2019-01-10T07:19:57.689Z,0.08
2019-01-10T07:23:24.067Z,0.10
2019-01-10T07:26:31.205Z,0.03
2019-01-10T07:29:20.761Z,0.10
2019-01-10T07:32:10.373Z,0.08
2019-01-10T07:38:31.451Z,0.03
2019-01-10T07:41:21.344Z,0.07
2019-01-10T07:44:10.910Z,0.10
2019-01-10T07:47:00.489Z,0.13
2019-01-10T07:49:50.067Z,0.16
2019-01-10T07:52:39.647Z,0.16
2019-01-10T07:55:29.568Z,0.17
2019-01-10T07:58:38.525Z,0.19
2019-01-10T08:01:28.145Z,0.22
2019-01-10T08:04:17.719Z,0.04
2019-01-10T08:07:07.286Z,0.27
2019-01-10T08:09:57.148Z,0.25
2019-01-10T08:12:46.851Z,0.31
2019-01-10T08:30:37.223Z,0.29
2019-01-10T08:54:52.954Z,0.45
2019-01-10T09:00:39.153Z,0.47
2019-01-10T09:06:26.055Z,0.28
2019-01-10T10:01:14.514Z,0.43
2019-01-10T10:29:10.448Z,0.92
2019-01-10T10:38:07.444Z,0.68
2019-01-10T10:44:28.562Z,0.86
2019-01-10T10:47:20.935Z,0.85
2019-01-10T10:50:06.148Z,0.88
2019-01-10T10:53:13.294Z,0.87
2019-01-10T10:56:02.894Z,0.93
2019-01-10T11:01:54.459Z,0.95
2019-01-10T11:08:11.264Z,0.99
2019-01-10T11:11:03.895Z,1.13
2019-01-10T11:19:51.208Z,0.94
2019-01-10T11:22:40.850Z,0.86
2019-01-10T11:33:35.907Z,0.84
2019-01-10T11:36:25.494Z,0.92
2019-01-10T11:39:15.144Z,0.78
2019-01-10T11:46:07.349Z,0.59
2019-01-10T11:48:57.008Z,0.74
2019-01-10T11:51:46.638Z,0.71
2019-01-10T11:54:53.839Z,0.94
2019-01-10T11:58:20.229Z,0.95
2019-01-10T12:01:10.037Z,0.97
2019-01-10T12:04:55.383Z,1.00
2019-01-10T12:07:44.954Z,1.00
2019-01-10T12:10:34.567Z,0.89
2019-01-10T12:17:44.328Z,0.60
2019-01-10T12:20:52.057Z,0.77
2019-01-10T12:26:24.482Z,0.88
2019-01-10T12:29:14.037Z,0.62
2019-01-10T12:32:24.004Z,0.88
2019-01-10T12:35:33.898Z,0.70
2019-01-10T12:38:24.119Z,0.72
2019-01-10T12:41:13.841Z,0.48
2019-01-10T12:44:03.409Z,0.76
2019-01-10T12:46:53.395Z,0.76
2019-01-10T12:49:43.031Z,0.76
2019-01-10T12:52:35.293Z,0.70
2019-01-10T12:55:23.908Z,0.71
2019-01-10T12:58:13.541Z,0.50
2019-01-10T13:01:03.209Z,0.66
2019-01-10T13:03:52.859Z,0.48
2019-01-10T13:06:42.488Z,0.41
2019-01-10T13:09:32.125Z,0.48
2019-01-10T13:12:21.726Z,0.43
2019-01-10T13:18:34.741Z,0.34
2019-01-10T13:21:24.320Z,0.43
2019-01-10T13:24:33.153Z,0.34
2019-01-10T13:28:18.421Z,0.29
2019-01-10T13:31:08.288Z,0.54
2019-01-10T13:33:58.308Z,0.49
2019-01-10T13:36:47.941Z,0.47
2019-01-10T13:39:37.526Z,0.52
2019-01-10T13:42:27.124Z,0.31
2019-01-10T13:48:08.913Z,0.33
2019-01-10T13:51:16.170Z,0.32
2019-01-10T13:54:26.084Z,0.30
2019-01-10T13:57:15.660Z,0.03
2019-01-10T14:04:03.259Z,0.23
2019-01-10T14:06:52.825Z,0.24
2019-01-10T14:13:29.995Z,0.16
2019-01-10T14:16:18.185Z,0.13
2019-01-10T14:25:23.500Z,0.13
2019-01-10T14:28:13.392Z,0.07
2019-01-10T15:07:59.295Z,-0.08
2019-01-10T15:10:48.879Z,-0.07
2019-01-10T15:13:38.547Z,-0.21
2019-01-10T15:26:09.463Z,-0.38
2019-01-10T15:28:52.362Z,-0.16
2019-01-10T15:31:42.255Z,-0.20
2019-01-10T15:34:32.136Z,-0.20
2019-01-10T15:37:21.728Z,-0.26
2019-01-10T15:40:43.598Z,-0.26
2019-01-10T15:43:33.258Z,-0.28
2019-01-10T15:46:23.233Z,-0.25
2019-01-10T15:49:12.851Z,-0.21
2019-01-10T15:52:02.552Z,-0.26
2019-01-10T15:54:52.144Z,-0.58
2019-01-10T15:57:41.810Z,-0.31
2019-01-10T16:00:31.495Z,-0.30
2019-01-10T16:03:21.722Z,-0.27
2019-01-10T16:06:11.300Z,-0.27
2019-01-10T16:09:00.870Z,-0.42
2019-01-10T16:11:50.456Z,-0.32
2019-01-10T16:14:40.055Z,-0.37
2019-01-10T16:17:25.637Z,-0.29
2019-01-10T16:20:14.144Z,-0.32
2019-01-10T16:23:03.825Z,-0.31
2019-01-10T16:25:53.394Z,-0.33
2019-01-10T16:31:38.081Z,-0.40
2019-01-10T16:34:27.669Z,-0.40
2019-01-10T16:37:17.250Z,-0.31
2019-01-10T16:43:49.236Z,-0.62
2019-01-10T16:46:56.795Z,-0.36
2019-01-10T16:49:38.721Z,-0.36
2019-01-10T16:52:46.112Z,-0.35
2019-01-10T16:55:36.035Z,-0.73
2019-01-10T17:01:21.616Z,-0.51
2019-01-10T17:04:29.050Z,-0.55
2019-01-10T17:07:18.655Z,-0.69
2019-01-10T17:10:08.737Z,-0.43
2019-01-10T17:12:58.327Z,-0.50
2019-01-10T17:15:47.933Z,-0.44
2019-01-10T17:18:55.314Z,-0.78
2019-01-10T17:21:44.994Z,-0.72
2019-01-10T17:28:37.471Z,-0.51
2019-01-10T17:38:12.932Z,-0.42
2019-01-10T17:41:02.518Z,-0.42
2019-01-10T17:43:52.185Z,-0.74
2019-01-10T17:46:41.852Z,-0.53
2019-01-10T17:49:31.447Z,-0.81
2019-01-10T17:52:25.031Z,-0.55
2019-01-10T17:55:12.353Z,-0.66
2019-01-10T17:58:02.055Z,-0.56
2019-01-10T18:00:51.622Z,-0.83
2019-01-10T18:07:27.804Z,-0.59
2019-01-10T18:14:17.898Z,-0.61
2019-01-10T18:19:54.900Z,-0.61
2019-01-10T18:23:02.217Z,-0.84
2019-01-10T18:25:51.778Z,-0.93
2019-01-10T18:28:41.384Z,-0.68
2019-01-10T18:31:31.278Z,-0.68
2019-01-10T18:34:20.863Z,-0.82
2019-01-10T18:41:18.454Z,-0.71
2019-01-10T18:44:25.738Z,-0.78
2019-01-10T18:47:15.300Z,-0.80
2019-01-10T18:50:05.773Z,-0.84
2019-01-10T18:52:55.445Z,-0.88
2019-01-10T18:55:45.087Z,-0.89
2019-01-10T18:58:34.651Z,-0.83
2019-01-10T19:01:25.230Z,-0.82
2019-01-10T19:04:15.078Z,-0.88
2019-01-10T19:07:05.270Z,-0.90
2019-01-10T19:10:10.836Z,-0.93
2019-01-10T19:13:18.273Z,-0.88
2019-01-10T19:16:07.929Z,-0.92
2019-01-10T19:18:57.797Z,-1.27
2019-01-10T19:21:47.403Z,-1.11
2019-01-10T19:24:37.309Z,-1.16
2019-01-10T19:27:26.934Z,-1.32
2019-01-10T19:30:53.770Z,-1.20
2019-01-10T19:40:59.576Z,-1.24
2019-01-10T19:47:31.486Z,-1.29
2019-01-10T19:50:46.067Z,-1.32
2019-01-10T19:53:35.920Z,-1.39
2019-01-10T19:57:01.505Z,-1.50
2019-01-10T19:59:51.390Z,-1.45
2019-01-10T20:02:41.034Z,-1.67
2019-01-10T20:05:30.659Z,-1.48
2019-01-10T20:08:20.276Z,-1.75
2019-01-10T20:11:09.931Z,-1.54
2019-01-10T20:13:59.529Z,-1.83
2019-01-10T20:16:42.139Z,-1.80
2019-01-10T20:19:31.808Z,-1.61
2019-01-10T20:22:21.689Z,-1.66
2019-01-10T20:25:11.453Z,-1.64
2019-01-10T20:28:01.091Z,-2.00
2019-01-10T20:30:50.787Z,-1.66
2019-01-10T20:33:38.812Z,-1.65
2019-01-10T20:36:28.689Z,-1.72
2019-01-10T20:42:26.786Z,-1.74
2019-01-10T20:45:17.087Z,-1.80
2019-01-10T20:55:03.983Z,-1.68
2019-01-10T21:04:00.457Z,-1.75
2019-01-10T21:07:08.023Z,-1.76
2019-01-10T21:09:57.676Z,-1.82
2019-01-10T21:12:48.226Z,-1.81
2019-01-10T21:15:37.812Z,-2.03
2019-01-10T21:21:44.581Z,-1.84
2019-01-10T21:24:34.565Z,-2.08
2019-01-10T21:27:24.235Z,-1.82
2019-01-10T21:30:36.429Z,-2.10
2019-01-10T21:33:26.165Z,-1.86
2019-01-10T21:36:16.322Z,-1.88
2019-01-10T21:39:06.839Z,-2.06
2019-01-10T21:41:56.940Z,-1.90
2019-01-10T21:45:05.998Z,-2.20
2019-01-10T21:47:55.714Z,-2.18
2019-01-10T21:50:45.458Z,-1.94
2019-01-10T22:00:51.751Z,-1.96
2019-01-10T22:07:06.233Z,-1.90
2019-01-10T22:13:41.384Z,-1.92
2019-01-10T22:20:00.175Z,-1.89
2019-01-10T22:22:42.884Z,-2.18
2019-01-10T22:25:30.938Z,-1.90
2019-01-10T22:32:12.783Z,-1.87
2019-01-10T22:35:02.433Z,-2.05
2019-01-10T22:37:52.610Z,-1.82
2019-01-10T22:41:01.778Z,-1.81
2019-01-10T22:44:45.442Z,-2.07
2019-01-10T22:51:05.293Z,-1.70
2019-01-10T22:54:11.040Z,-1.93
2019-01-10T23:16:22.509Z,-1.75
2019-01-10T23:40:39.784Z,-1.98
